Portada
METAR-TAF:

METAR-TAF

Aeroports :

Riberalta, Bolívia

latitud: 11-00S, longitud: 066-07W, altitud: 141 m

Observació

L'informe es va fer fa 6 hores i 8 minuts, a les 23:00 UTC
Vent 6 kt del Nord
Temperatura 31°C
Humitat 63%
Pressió 1009 hPa
Visibilitat: 5000 m
fum

METAR: SLRI 212300Z 36006KT 5000 FU NSC 31/23 Q1009

Hora: 01:08 (05:08 UTC)


TAF: manca

Observacions i pronòstics meteorològics de més de 4000 aeroports (METAR i TAF).

Les estacions disponibles són els punts grocs i vermells al mapa.

Posi el ratolí al punt desitjat per veure el nom de l'estació.

Feu clic per veure les observacions i els pronòstics meteorològics.

Per canviar el mapa: feu clic els botons verds amb una creu de color negre per apropar; al botó verd amb un guió per allunyar la imatge; o en les fletxes verdes per a mapes adjacents.


METAR-TAF: